createdAt,value
2019-03-12T00:00:21.778Z,32.00
2019-03-12T00:01:21.775Z,36.00
2019-03-12T00:02:21.792Z,32.00
2019-03-12T00:03:21.750Z,32.00
2019-03-12T00:04:21.741Z,36.00
2019-03-12T00:05:21.728Z,36.00
2019-03-12T00:06:21.711Z,36.00
2019-03-12T00:07:21.706Z,36.00
2019-03-12T00:08:21.728Z,36.00
2019-03-12T00:09:21.761Z,36.00
2019-03-12T00:10:21.675Z,36.00
2019-03-12T00:11:21.666Z,36.00
2019-03-12T00:12:21.657Z,36.00
2019-03-12T00:13:21.641Z,36.00
2019-03-12T00:14:21.677Z,36.00
2019-03-12T00:15:21.626Z,36.00
2019-03-12T00:16:21.612Z,36.00
2019-03-12T00:17:21.607Z,36.00
2019-03-12T00:18:21.739Z,36.00
2019-03-12T00:19:21.579Z,36.00
2019-03-12T00:20:21.589Z,36.00
2019-03-12T00:21:21.563Z,36.00
2019-03-12T00:22:21.551Z,36.00
2019-03-12T00:23:21.533Z,36.00
2019-03-12T00:24:21.538Z,36.00
2019-03-12T00:25:21.513Z,36.00
2019-03-12T00:26:21.551Z,36.00
2019-03-12T00:27:33.685Z,36.00
2019-03-12T00:28:21.483Z,36.00
2019-03-12T00:29:21.475Z,36.00
2019-03-12T00:30:21.466Z,36.00
2019-03-12T00:31:21.557Z,36.00
2019-03-12T00:32:21.459Z,36.00
2019-03-12T00:33:21.444Z,36.00
2019-03-12T00:34:21.422Z,36.00
2019-03-12T00:35:21.412Z,36.00
2019-03-12T00:36:21.413Z,36.00
2019-03-12T00:37:21.398Z,36.00
2019-03-12T00:38:21.478Z,36.00
2019-03-12T00:39:21.369Z,36.00
2019-03-12T00:40:21.376Z,36.00
2019-03-12T00:41:21.407Z,36.00
2019-03-12T00:42:22.095Z,36.00
2019-03-12T00:43:21.343Z,36.00
2019-03-12T00:44:21.335Z,36.00
2019-03-12T00:45:21.315Z,36.00
2019-03-12T00:46:21.300Z,32.00
2019-03-12T00:47:21.328Z,36.00
2019-03-12T00:48:21.290Z,32.00
2019-03-12T00:49:21.362Z,32.00
2019-03-12T00:50:21.288Z,32.00
2019-03-12T00:51:21.261Z,36.00
2019-03-12T00:52:21.252Z,36.00
2019-03-12T00:53:21.221Z,36.00
2019-03-12T00:54:21.222Z,36.00
2019-03-12T00:55:21.215Z,36.00
2019-03-12T00:56:21.280Z,36.00
2019-03-12T00:57:21.179Z,36.00
2019-03-12T00:58:33.559Z,36.00
2019-03-12T00:59:21.157Z,36.00
2019-03-12T01:00:21.148Z,36.00
2019-03-12T01:01:21.139Z,36.00
2019-03-12T01:02:21.178Z,36.00
2019-03-12T01:03:21.120Z,36.00
2019-03-12T01:04:21.108Z,36.00
2019-03-12T01:05:21.111Z,36.00
2019-03-12T01:06:21.085Z,36.00
2019-03-12T01:07:21.080Z,36.00
2019-03-12T01:08:21.101Z,36.00
2019-03-12T01:09:21.057Z,36.00
2019-03-12T01:10:21.053Z,36.00
2019-03-12T01:11:21.123Z,36.00
2019-03-12T01:12:21.024Z,32.00
2019-03-12T01:13:21.056Z,36.00
2019-03-12T01:14:21.004Z,36.00
2019-03-12T01:15:20.992Z,36.00
2019-03-12T01:16:20.987Z,32.00
2019-03-12T01:17:20.978Z,32.00
2019-03-12T01:18:20.959Z,32.00
2019-03-12T01:19:20.992Z,32.00
2019-03-12T01:20:20.939Z,36.00
2019-03-12T01:21:20.931Z,36.00
2019-03-12T01:22:20.923Z,36.00
2019-03-12T01:23:20.919Z,32.00
2019-03-12T01:24:20.907Z,32.00
2019-03-12T01:25:20.923Z,32.00
2019-03-12T01:26:20.878Z,32.00
2019-03-12T01:27:20.870Z,36.00
2019-03-12T01:28:20.860Z,32.00
2019-03-12T01:29:33.202Z,36.00
2019-03-12T01:30:20.844Z,36.00
2019-03-12T01:31:20.864Z,36.00
2019-03-12T01:32:20.813Z,36.00
2019-03-12T01:33:20.820Z,32.00
2019-03-12T01:34:20.796Z,32.00
2019-03-12T01:35:20.786Z,36.00
2019-03-12T01:36:20.782Z,36.00
2019-03-12T01:37:20.783Z,36.00
2019-03-12T01:38:20.753Z,36.00
2019-03-12T01:39:20.745Z,36.00
2019-03-12T01:40:20.733Z,36.00
2019-03-12T01:41:20.726Z,32.00
2019-03-12T01:42:20.711Z,36.00
2019-03-12T01:43:20.706Z,32.00
2019-03-12T01:44:20.691Z,36.00
2019-03-12T01:45:20.681Z,36.00
2019-03-12T01:46:20.673Z,36.00
2019-03-12T01:47:20.669Z,36.00
2019-03-12T01:48:20.690Z,32.00
2019-03-12T01:49:20.645Z,32.00
2019-03-12T01:50:20.628Z,36.00
2019-03-12T01:51:20.621Z,36.00
2019-03-12T01:52:20.608Z,36.00
2019-03-12T01:53:20.606Z,36.00
2019-03-12T01:54:20.629Z,36.00
2019-03-12T01:55:20.575Z,36.00
2019-03-12T01:56:20.569Z,36.00
2019-03-12T01:57:20.556Z,36.00
2019-03-12T01:58:20.555Z,36.00
2019-03-12T01:59:20.538Z,36.00
2019-03-12T02:00:32.668Z,36.00
2019-03-12T02:01:20.521Z,36.00
2019-03-12T02:02:20.508Z,36.00
2019-03-12T02:03:20.501Z,36.00
2019-03-12T02:04:20.576Z,36.00
2019-03-12T02:05:20.472Z,36.00
2019-03-12T02:06:20.514Z,36.00
2019-03-12T02:07:20.453Z,36.00
2019-03-12T02:08:20.445Z,36.00
2019-03-12T02:09:20.502Z,36.00
2019-03-12T02:10:20.447Z,36.00
2019-03-12T02:11:20.417Z,36.00
2019-03-12T02:12:20.432Z,36.00
2019-03-12T02:13:20.397Z,36.00
2019-03-12T02:14:20.378Z,36.00
2019-03-12T02:15:20.368Z,36.00
2019-03-12T02:16:20.362Z,36.00
2019-03-12T02:17:20.355Z,36.00
2019-03-12T02:18:20.345Z,36.00
2019-03-12T02:19:20.325Z,36.00
2019-03-12T02:20:20.317Z,36.00
2019-03-12T02:21:20.304Z,36.00
2019-03-12T02:22:20.296Z,36.00
2019-03-12T02:23:20.334Z,36.00
2019-03-12T02:24:20.280Z,36.00
2019-03-12T02:25:20.272Z,36.00
2019-03-12T02:26:20.258Z,36.00
2019-03-12T02:27:20.242Z,36.00
2019-03-12T02:28:20.238Z,36.00
2019-03-12T02:29:20.271Z,36.00
2019-03-12T02:30:20.223Z,36.00
2019-03-12T02:31:33.264Z,36.00
2019-03-12T02:32:20.197Z,36.00
2019-03-12T02:33:20.187Z,36.00
2019-03-12T02:34:20.185Z,36.00
2019-03-12T02:35:20.199Z,36.00
2019-03-12T02:36:20.155Z,32.00
2019-03-12T02:37:20.143Z,36.00
2019-03-12T02:38:20.132Z,36.00
2019-03-12T02:39:20.122Z,36.00
2019-03-12T02:40:20.108Z,36.00
2019-03-12T02:41:20.139Z,36.00
2019-03-12T02:42:20.100Z,36.00
2019-03-12T02:43:20.102Z,36.00
2019-03-12T02:44:20.076Z,32.00
2019-03-12T02:45:20.067Z,32.00
2019-03-12T02:46:20.062Z,32.00
2019-03-12T02:47:20.078Z,36.00
2019-03-12T02:48:20.036Z,36.00
2019-03-12T02:49:20.020Z,36.00
2019-03-12T02:50:20.009Z,32.00
2019-03-12T02:51:19.999Z,32.00
2019-03-12T02:52:19.997Z,32.00
2019-03-12T02:53:20.017Z,32.00
2019-03-12T02:54:20.038Z,32.00
2019-03-12T02:55:19.956Z,32.00
2019-03-12T02:56:19.953Z,32.00
2019-03-12T02:57:19.940Z,32.00
2019-03-12T02:58:19.925Z,36.00
2019-03-12T02:59:19.955Z,32.00
2019-03-12T03:00:19.917Z,32.00
2019-03-12T03:01:19.893Z,32.00
2019-03-12T03:02:32.693Z,36.00
2019-03-12T03:03:19.874Z,36.00
2019-03-12T03:04:19.863Z,32.00
2019-03-12T03:05:19.901Z,32.00
2019-03-12T03:06:19.848Z,32.00
2019-03-12T03:07:19.835Z,32.00
2019-03-12T03:08:19.830Z,32.00
2019-03-12T03:09:19.808Z,32.00
2019-03-12T03:10:19.797Z,32.00
2019-03-12T03:11:19.794Z,32.00
2019-03-12T03:12:19.781Z,36.00
2019-03-12T03:13:19.777Z,32.00
2019-03-12T03:14:19.769Z,32.00
2019-03-12T03:15:19.757Z,32.00
2019-03-12T03:16:23.898Z,32.00
2019-03-12T03:17:19.730Z,32.00
2019-03-12T03:18:19.719Z,32.00
2019-03-12T03:19:19.719Z,32.00
2019-03-12T03:20:19.705Z,32.00
2019-03-12T03:21:19.684Z,32.00
2019-03-12T03:22:19.714Z,32.00
2019-03-12T03:23:19.674Z,36.00
2019-03-12T03:24:19.657Z,36.00
2019-03-12T03:25:19.647Z,36.00
2019-03-12T03:26:19.634Z,36.00
2019-03-12T03:27:19.633Z,32.00
2019-03-12T03:28:19.649Z,32.00
2019-03-12T03:29:19.601Z,32.00
2019-03-12T03:30:19.722Z,32.00
2019-03-12T03:31:19.582Z,36.00
2019-03-12T03:32:19.572Z,36.00
2019-03-12T03:33:32.308Z,36.00
2019-03-12T03:34:27.001Z,36.00
2019-03-12T03:35:20.541Z,32.00
2019-03-12T03:36:19.534Z,36.00
2019-03-12T03:37:19.520Z,36.00
2019-03-12T03:38:19.511Z,36.00
2019-03-12T03:39:19.803Z,36.00
2019-03-12T03:40:19.490Z,36.00
2019-03-12T03:41:19.484Z,36.00
2019-03-12T03:42:19.470Z,36.00
2019-03-12T03:43:19.460Z,36.00
2019-03-12T03:44:19.472Z,36.00
2019-03-12T03:45:19.472Z,36.00
2019-03-12T03:46:19.432Z,36.00
2019-03-12T03:47:20.077Z,36.00
2019-03-12T03:48:19.414Z,36.00
2019-03-12T03:49:19.397Z,36.00
2019-03-12T03:50:19.387Z,36.00
2019-03-12T03:51:19.412Z,36.00
2019-03-12T03:52:19.374Z,32.00
2019-03-12T03:53:19.353Z,32.00
2019-03-12T03:54:19.343Z,36.00
2019-03-12T03:55:19.340Z,36.00
2019-03-12T03:56:19.322Z,36.00
2019-03-12T03:57:19.323Z,36.00
2019-03-12T03:58:19.304Z,40.00
2019-03-12T03:59:19.288Z,40.00
2019-03-12T04:00:19.285Z,36.00
2019-03-12T04:01:19.272Z,40.00
2019-03-12T04:02:19.277Z,40.00
2019-03-12T04:03:19.248Z,40.00
2019-03-12T04:04:32.277Z,40.00
2019-03-12T04:05:19.238Z,40.00
2019-03-12T04:06:19.221Z,44.00
2019-03-12T04:07:19.211Z,44.00
2019-03-12T04:08:19.240Z,48.00
2019-03-12T04:09:19.192Z,48.00
2019-03-12T04:10:19.176Z,48.00
2019-03-12T04:11:19.174Z,48.00
2019-03-12T04:12:19.156Z,56.00
2019-03-12T04:13:19.141Z,56.00
2019-03-12T04:14:19.243Z,56.00
2019-03-12T04:15:19.131Z,60.00
2019-03-12T04:16:19.122Z,68.00
2019-03-12T04:17:19.107Z,68.00
2019-03-12T04:18:19.127Z,72.00
2019-03-12T04:19:19.078Z,76.00
2019-03-12T04:20:19.255Z,80.00
2019-03-12T04:21:19.063Z,84.00
2019-03-12T04:22:19.049Z,88.00
2019-03-12T04:23:19.055Z,92.00
2019-03-12T04:24:19.029Z,100.00
2019-03-12T04:25:19.083Z,104.00
2019-03-12T04:26:19.004Z,108.00
2019-03-12T04:27:19.002Z,116.00
2019-03-12T04:28:18.985Z,124.00
2019-03-12T04:29:18.979Z,132.00
2019-03-12T04:30:18.969Z,140.00
2019-03-12T04:31:18.980Z,152.00
2019-03-12T04:32:18.944Z,160.00
2019-03-12T04:33:18.930Z,168.00
2019-03-12T04:34:18.929Z,180.00
2019-03-12T04:35:31.344Z,152.00
2019-03-12T04:36:18.911Z,164.00
2019-03-12T04:37:18.933Z,176.00
2019-03-12T04:38:18.885Z,188.00
2019-03-12T04:39:18.889Z,212.00
2019-03-12T04:40:18.859Z,228.00
2019-03-12T04:41:18.860Z,256.00
2019-03-12T04:42:18.906Z,284.00
2019-03-12T04:43:18.842Z,316.00
2019-03-12T04:44:18.823Z,352.00
2019-03-12T04:45:18.808Z,384.00
2019-03-12T04:46:18.885Z,416.00
2019-03-12T04:47:18.798Z,444.00
2019-03-12T04:48:18.821Z,476.00
2019-03-12T04:49:18.767Z,504.00
2019-03-12T04:50:18.756Z,536.00
2019-03-12T04:51:18.740Z,564.00
2019-03-12T04:52:18.737Z,588.00
2019-03-12T04:53:18.725Z,612.00
2019-03-12T04:54:18.728Z,640.00
2019-03-12T04:55:18.708Z,672.00
2019-03-12T04:56:18.695Z,724.00
2019-03-12T04:57:18.681Z,784.00
2019-03-12T04:58:18.667Z,860.00
2019-03-12T04:59:18.661Z,952.00
2019-03-12T05:00:18.696Z,1040.00
2019-03-12T05:01:18.650Z,1124.00
2019-03-12T05:02:18.647Z,1192.00
2019-03-12T05:03:18.613Z,1264.00
2019-03-12T05:04:18.609Z,1336.00
2019-03-12T05:05:18.599Z,1360.00
2019-03-12T05:06:31.881Z,1344.00
2019-03-12T05:07:18.570Z,1332.00
2019-03-12T05:08:19.366Z,1348.00
2019-03-12T05:09:18.548Z,1364.00
2019-03-12T05:10:18.548Z,1404.00
2019-03-12T05:11:18.533Z,1464.00
2019-03-12T05:12:18.537Z,1536.00
2019-03-12T05:13:18.517Z,1596.00
2019-03-12T05:14:18.500Z,1640.00
2019-03-12T05:15:18.493Z,1692.00
2019-03-12T05:16:18.479Z,1756.00
2019-03-12T05:17:18.469Z,1824.00
2019-03-12T05:18:18.497Z,1888.00
2019-03-12T05:19:18.451Z,1948.00
2019-03-12T05:20:18.440Z,1992.00
2019-03-12T05:21:18.422Z,2008.00
2019-03-12T05:22:18.416Z,1992.00
2019-03-12T05:23:18.493Z,1928.00
2019-03-12T05:24:18.404Z,1840.00
2019-03-12T05:25:18.387Z,1744.00
2019-03-12T05:26:18.481Z,1700.00
2019-03-12T05:27:18.364Z,1672.00
2019-03-12T05:28:18.352Z,1672.00
2019-03-12T05:29:18.381Z,1672.00
2019-03-12T05:30:18.347Z,1668.00
2019-03-12T05:31:18.371Z,1708.00
2019-03-12T05:32:18.316Z,1784.00
2019-03-12T05:33:18.297Z,1896.00
2019-03-12T05:34:18.288Z,2040.00
2019-03-12T05:35:18.321Z,2200.00
2019-03-12T05:36:18.266Z,2356.00
2019-03-12T05:37:31.283Z,2468.00
2019-03-12T05:38:18.246Z,2580.00
2019-03-12T05:39:18.242Z,2648.00
2019-03-12T05:40:18.223Z,2680.00
2019-03-12T05:41:18.247Z,2688.00
2019-03-12T05:42:18.199Z,2692.00
2019-03-12T05:43:18.192Z,2656.00
2019-03-12T05:44:18.297Z,2656.00
2019-03-12T05:45:18.172Z,2660.00
2019-03-12T05:46:18.157Z,2668.00
2019-03-12T05:47:18.188Z,2680.00
2019-03-12T05:48:18.155Z,2716.00
2019-03-12T05:49:18.131Z,2748.00
2019-03-12T05:50:18.117Z,2792.00
2019-03-12T05:51:18.130Z,2816.00
2019-03-12T05:52:18.095Z,2844.00
2019-03-12T05:53:18.503Z,2848.00
2019-03-12T05:54:18.093Z,2856.00
2019-03-12T05:55:18.156Z,2908.00
2019-03-12T05:56:18.334Z,2964.00
2019-03-12T05:57:18.183Z,3104.00
2019-03-12T05:58:18.029Z,3272.00
2019-03-12T05:59:18.062Z,3580.00
2019-03-12T06:00:18.111Z,3816.00
2019-03-12T06:01:18.013Z,4048.00
2019-03-12T06:02:18.032Z,4132.00
2019-03-12T06:03:17.983Z,4136.00
2019-03-12T06:04:17.976Z,4124.00
2019-03-12T06:05:17.997Z,4104.00
2019-03-12T06:06:17.947Z,4140.00
2019-03-12T06:07:17.937Z,4152.00
2019-03-12T06:08:30.417Z,4160.00
2019-03-12T06:09:29.673Z,4160.00
2019-03-12T06:10:18.945Z,4156.00
2019-03-12T06:11:17.893Z,4168.00
2019-03-12T06:12:17.906Z,4152.00
2019-03-12T06:13:17.872Z,4224.00
2019-03-12T06:14:17.884Z,4300.00
2019-03-12T06:15:17.865Z,4348.00
2019-03-12T06:16:17.880Z,4416.00
2019-03-12T06:17:17.828Z,4480.00
2019-03-12T06:18:17.823Z,4524.00
2019-03-12T06:19:17.810Z,4552.00
2019-03-12T06:20:17.802Z,4552.00
2019-03-12T06:21:17.788Z,4536.00
2019-03-12T06:22:17.817Z,4520.00
2019-03-12T06:23:17.764Z,4452.00
2019-03-12T06:24:17.757Z,4376.00
2019-03-12T06:25:17.907Z,4340.00
2019-03-12T06:26:17.739Z,4336.00
2019-03-12T06:27:18.385Z,4344.00
2019-03-12T06:28:17.750Z,4328.00
2019-03-12T06:29:17.705Z,4304.00
2019-03-12T06:30:17.696Z,4372.00
2019-03-12T06:31:17.681Z,4552.00
2019-03-12T06:32:17.687Z,4784.00
2019-03-12T06:33:17.669Z,4916.00
2019-03-12T06:34:17.692Z,4824.00
2019-03-12T06:35:17.677Z,4748.00
2019-03-12T06:36:17.631Z,5076.00
2019-03-12T06:37:18.431Z,5424.00
2019-03-12T06:38:17.608Z,5584.00
2019-03-12T06:39:31.000Z,5548.00
2019-03-12T06:40:17.589Z,5460.00
2019-03-12T06:41:17.576Z,5268.00
2019-03-12T06:42:17.562Z,5280.00
2019-03-12T06:43:17.553Z,5184.00
2019-03-12T06:44:17.542Z,5080.00
2019-03-12T06:45:17.697Z,4960.00
2019-03-12T06:46:17.568Z,4780.00
2019-03-12T06:47:17.518Z,4620.00
2019-03-12T06:48:17.524Z,4544.00
2019-03-12T06:49:17.500Z,4496.00
2019-03-12T06:50:17.578Z,4480.00
2019-03-12T06:51:17.471Z,4480.00
2019-03-12T06:52:17.466Z,4492.00
2019-03-12T06:53:17.459Z,4588.00
2019-03-12T06:54:17.467Z,4632.00
2019-03-12T06:55:17.435Z,4616.00
2019-03-12T06:56:17.456Z,4652.00
2019-03-12T06:57:17.412Z,4828.00
2019-03-12T06:58:17.440Z,5028.00
2019-03-12T06:59:17.955Z,5196.00
2019-03-12T07:00:17.376Z,5356.00
2019-03-12T07:01:17.374Z,5488.00
2019-03-12T07:02:17.374Z,5456.00
2019-03-12T07:03:17.342Z,5340.00
2019-03-12T07:04:17.343Z,5344.00
2019-03-12T07:05:17.996Z,5540.00
2019-03-12T07:06:17.315Z,5864.00
2019-03-12T07:07:17.466Z,6216.00
2019-03-12T07:08:17.291Z,6432.00
2019-03-12T07:09:17.291Z,6564.00
2019-03-12T07:10:30.803Z,6788.00
2019-03-12T07:11:17.259Z,6880.00
2019-03-12T07:12:17.293Z,6984.00
2019-03-12T07:13:17.278Z,7092.00
2019-03-12T07:14:17.237Z,7320.00
2019-03-12T07:15:17.221Z,7576.00
2019-03-12T07:16:17.219Z,7792.00
2019-03-12T07:17:17.200Z,7940.00
2019-03-12T07:18:17.195Z,8064.00
2019-03-12T07:19:17.206Z,8264.00
2019-03-12T07:20:17.169Z,8348.00
2019-03-12T07:21:17.153Z,8224.00
2019-03-12T07:22:17.173Z,8044.00
2019-03-12T07:23:17.139Z,7684.00
2019-03-12T07:24:17.124Z,8000.00
2019-03-12T07:25:17.131Z,8416.00
2019-03-12T07:26:17.117Z,8760.00
2019-03-12T07:27:17.093Z,9732.00
2019-03-12T07:28:17.081Z,10796.00
2019-03-12T07:29:17.069Z,11728.00
2019-03-12T07:30:17.076Z,11776.00
2019-03-12T07:31:17.166Z,12780.00
2019-03-12T07:32:17.033Z,13012.00
2019-03-12T07:33:17.046Z,13112.00
2019-03-12T07:34:18.103Z,13564.00
2019-03-12T07:35:17.004Z,13996.00
2019-03-12T07:36:16.991Z,14384.00
2019-03-12T07:37:17.033Z,14972.00
2019-03-12T07:38:16.981Z,15388.00
2019-03-12T07:39:17.161Z,15756.00
2019-03-12T07:40:19.991Z,15996.00
2019-03-12T07:41:32.241Z,16488.00
2019-03-12T07:42:16.933Z,17128.00
2019-03-12T07:43:16.936Z,17856.00
2019-03-12T07:44:16.965Z,18784.00
2019-03-12T07:45:16.893Z,20352.00
2019-03-12T07:46:16.892Z,24672.00
2019-03-12T07:47:16.875Z,24064.00
2019-03-12T07:48:16.877Z,23168.00
2019-03-12T07:49:16.892Z,20896.00
2019-03-12T07:50:16.845Z,22016.00
2019-03-12T07:51:16.833Z,23008.00
2019-03-12T07:52:16.826Z,25536.00
2019-03-12T07:53:16.812Z,23360.00
2019-03-12T07:54:16.802Z,25120.00
2019-03-12T07:55:16.822Z,23072.00
2019-03-12T07:56:16.791Z,21216.00
2019-03-12T07:57:16.764Z,20448.00
2019-03-12T07:58:16.807Z,17920.00
2019-03-12T07:59:16.747Z,14928.00
2019-03-12T08:00:16.744Z,14448.00
2019-03-12T08:01:16.742Z,14692.00
2019-03-12T08:02:17.513Z,15256.00
2019-03-12T08:03:16.710Z,15092.00
2019-03-12T08:04:16.690Z,15608.00
2019-03-12T08:05:16.696Z,14944.00
2019-03-12T08:06:17.512Z,14724.00
2019-03-12T08:07:16.666Z,14568.00
2019-03-12T08:08:16.641Z,14128.00
2019-03-12T08:09:16.635Z,13992.00
2019-03-12T08:10:16.716Z,13752.00
2019-03-12T08:11:16.619Z,13732.00
2019-03-12T08:12:29.220Z,13952.00
2019-03-12T08:13:16.592Z,14392.00
2019-03-12T08:14:16.600Z,14668.00
2019-03-12T08:15:23.155Z,14936.00
2019-03-12T08:16:17.559Z,15264.00
2019-03-12T08:17:16.554Z,15524.00
2019-03-12T08:18:16.664Z,16936.00
2019-03-12T08:19:16.526Z,17096.00
2019-03-12T08:20:16.536Z,18144.00
2019-03-12T08:21:22.402Z,17824.00
2019-03-12T08:22:17.493Z,17856.00
2019-03-12T08:23:17.052Z,17636.00
2019-03-12T08:24:16.593Z,17660.00
2019-03-12T08:25:17.053Z,17984.00
2019-03-12T08:26:16.556Z,17576.00
2019-03-12T08:27:16.542Z,17628.00
2019-03-12T08:28:16.466Z,18432.00
2019-03-12T08:29:16.525Z,19328.00
2019-03-12T08:30:17.046Z,20192.00
2019-03-12T08:31:16.483Z,19680.00
2019-03-12T08:32:16.382Z,19488.00
2019-03-12T08:33:16.375Z,20384.00
2019-03-12T08:34:16.365Z,19744.00
2019-03-12T08:35:16.526Z,18752.00
2019-03-12T08:36:16.352Z,17952.00
2019-03-12T08:37:16.422Z,17244.00
2019-03-12T08:38:16.331Z,16352.00
2019-03-12T08:39:16.312Z,15548.00
2019-03-12T08:40:16.319Z,14324.00
2019-03-12T08:41:16.336Z,13492.00
2019-03-12T08:42:16.294Z,13384.00
2019-03-12T08:43:28.136Z,13780.00
2019-03-12T08:44:16.253Z,14216.00
2019-03-12T08:45:16.611Z,14672.00
2019-03-12T08:46:18.250Z,14844.00
2019-03-12T08:47:17.247Z,14984.00
2019-03-12T08:48:16.214Z,14664.00
2019-03-12T08:49:16.209Z,14860.00
2019-03-12T08:50:16.186Z,15128.00
2019-03-12T08:51:16.181Z,16392.00
2019-03-12T08:52:16.174Z,17236.00
2019-03-12T08:53:16.199Z,18656.00
2019-03-12T08:54:16.146Z,19136.00
2019-03-12T08:55:16.139Z,19040.00
2019-03-12T08:56:16.132Z,19296.00
2019-03-12T08:57:16.123Z,19360.00
2019-03-12T08:58:16.122Z,19360.00
2019-03-12T08:59:16.156Z,19168.00
2019-03-12T09:00:16.076Z,19008.00
2019-03-12T09:01:16.070Z,18880.00
2019-03-12T09:02:16.054Z,18688.00
2019-03-12T09:03:16.042Z,18560.00
2019-03-12T09:04:16.206Z,17952.00
2019-03-12T09:05:16.066Z,17132.00
2019-03-12T09:06:16.037Z,16752.00
2019-03-12T09:07:16.109Z,16896.00
2019-03-12T09:08:15.994Z,17244.00
2019-03-12T09:09:16.018Z,17856.00
2019-03-12T09:10:15.966Z,18944.00
2019-03-12T09:11:16.016Z,19168.00
2019-03-12T09:12:15.949Z,19488.00
2019-03-12T09:13:15.958Z,19808.00
2019-03-12T09:14:28.649Z,20064.00
2019-03-12T09:15:15.913Z,19456.00
2019-03-12T09:16:15.927Z,19552.00
2019-03-12T09:17:15.899Z,19424.00
2019-03-12T09:18:16.150Z,19104.00
2019-03-12T09:19:15.872Z,19520.00
2019-03-12T09:20:15.905Z,20032.00
2019-03-12T09:21:15.848Z,21440.00
2019-03-12T09:22:15.973Z,21728.00
2019-03-12T09:23:15.822Z,22240.00
2019-03-12T09:24:15.816Z,22208.00
2019-03-12T09:25:15.800Z,21568.00
2019-03-12T09:26:16.071Z,21600.00
2019-03-12T09:27:15.787Z,21408.00
2019-03-12T09:28:16.179Z,20928.00
2019-03-12T09:29:15.766Z,20384.00
2019-03-12T09:30:16.678Z,19968.00
2019-03-12T09:31:16.597Z,19968.00
2019-03-12T09:32:15.733Z,19520.00
2019-03-12T09:33:15.953Z,19744.00
2019-03-12T09:34:15.720Z,19936.00
2019-03-12T09:35:15.799Z,20512.00
2019-03-12T09:36:15.697Z,21088.00
2019-03-12T09:37:15.677Z,21696.00
2019-03-12T09:38:15.657Z,22592.00
2019-03-12T09:39:15.645Z,23904.00
2019-03-12T09:40:15.780Z,23840.00
2019-03-12T09:41:15.629Z,22976.00
2019-03-12T09:42:15.631Z,21824.00
2019-03-12T09:43:15.610Z,20704.00
2019-03-12T09:44:15.602Z,19616.00
2019-03-12T09:45:27.716Z,18944.00
2019-03-12T09:46:15.573Z,18752.00
2019-03-12T09:47:15.563Z,18336.00
2019-03-12T09:48:15.553Z,17500.00
2019-03-12T09:49:15.536Z,17128.00
2019-03-12T09:50:15.529Z,16012.00
2019-03-12T09:51:15.613Z,15868.00
2019-03-12T09:52:15.510Z,16000.00
2019-03-12T09:53:15.491Z,16420.00
2019-03-12T09:54:15.510Z,16576.00
2019-03-12T09:55:15.481Z,16168.00
2019-03-12T09:56:15.459Z,15704.00
2019-03-12T09:57:15.523Z,15400.00
2019-03-12T09:58:16.175Z,15464.00
2019-03-12T09:59:15.447Z,15980.00
2019-03-12T10:00:16.830Z,16636.00
2019-03-12T10:01:15.719Z,16904.00
2019-03-12T10:02:15.517Z,16628.00
2019-03-12T10:03:15.388Z,16312.00
2019-03-12T10:04:15.407Z,16616.00
2019-03-12T10:05:15.388Z,17360.00
2019-03-12T10:06:15.355Z,17440.00
2019-03-12T10:07:15.337Z,17440.00
2019-03-12T10:08:15.368Z,17416.00
2019-03-12T10:09:15.343Z,17856.00
2019-03-12T10:10:15.301Z,18080.00
2019-03-12T10:11:15.299Z,18048.00
2019-03-12T10:12:15.285Z,17572.00
2019-03-12T10:13:15.367Z,17032.00
2019-03-12T10:14:15.293Z,16400.00
2019-03-12T10:15:15.357Z,16496.00
2019-03-12T10:16:27.318Z,16524.00
2019-03-12T10:17:15.232Z,16804.00
2019-03-12T10:18:15.304Z,16596.00
2019-03-12T10:19:15.233Z,16452.00
2019-03-12T10:20:15.308Z,16696.00
2019-03-12T10:21:15.182Z,17296.00
2019-03-12T10:22:15.173Z,18336.00
2019-03-12T10:23:15.160Z,19424.00
2019-03-12T10:24:15.151Z,20128.00
2019-03-12T10:25:15.146Z,20384.00
2019-03-12T10:26:15.172Z,20960.00
2019-03-12T10:27:15.121Z,21536.00
2019-03-12T10:28:15.121Z,21696.00
2019-03-12T10:29:15.137Z,22048.00
2019-03-12T10:30:15.090Z,22304.00
2019-03-12T10:31:15.076Z,22016.00
2019-03-12T10:32:15.107Z,20768.00
2019-03-12T10:33:15.054Z,19328.00
2019-03-12T10:34:15.039Z,18816.00
2019-03-12T10:35:15.036Z,18720.00
2019-03-12T10:36:15.187Z,18272.00
2019-03-12T10:37:16.596Z,17368.00
2019-03-12T10:38:15.015Z,16584.00
2019-03-12T10:39:14.994Z,15564.00
2019-03-12T10:40:15.014Z,14472.00
2019-03-12T10:41:14.969Z,13612.00
2019-03-12T10:42:14.953Z,13360.00
2019-03-12T10:43:14.997Z,13320.00
2019-03-12T10:44:14.977Z,12912.00
2019-03-12T10:45:14.923Z,12116.00
2019-03-12T10:46:15.036Z,12324.00
2019-03-12T10:47:27.347Z,12212.00
2019-03-12T10:48:14.889Z,11796.00
2019-03-12T10:49:14.881Z,11780.00
2019-03-12T10:50:14.909Z,11916.00
2019-03-12T10:51:14.856Z,12204.00
2019-03-12T10:52:14.846Z,12360.00
2019-03-12T10:53:14.845Z,12112.00
2019-03-12T10:54:14.825Z,11824.00
2019-03-12T10:55:14.818Z,11476.00
2019-03-12T10:56:14.817Z,11360.00
2019-03-12T10:57:14.792Z,11412.00
2019-03-12T10:58:14.792Z,11368.00
2019-03-12T10:59:14.767Z,11408.00
2019-03-12T11:00:14.753Z,11320.00
2019-03-12T11:01:14.750Z,11260.00
2019-03-12T11:02:14.755Z,11228.00
2019-03-12T11:03:14.727Z,11128.00
2019-03-12T11:04:15.685Z,11248.00
2019-03-12T11:05:14.707Z,11600.00
2019-03-12T11:06:14.696Z,11908.00
2019-03-12T11:07:16.710Z,12520.00
2019-03-12T11:08:14.805Z,13356.00
2019-03-12T11:09:14.677Z,14204.00
2019-03-12T11:10:14.662Z,14884.00
2019-03-12T11:11:14.703Z,15368.00
2019-03-12T11:12:14.657Z,15924.00
2019-03-12T11:13:15.110Z,16568.00
2019-03-12T11:14:14.643Z,17036.00
2019-03-12T11:15:14.608Z,17428.00
2019-03-12T11:16:14.586Z,18176.00
2019-03-12T11:17:14.568Z,18432.00
2019-03-12T11:18:26.868Z,18656.00
2019-03-12T11:19:14.552Z,18752.00
2019-03-12T11:20:14.555Z,18720.00
2019-03-12T11:21:14.525Z,18112.00
2019-03-12T11:22:14.528Z,17152.00
2019-03-12T11:23:14.506Z,16648.00
2019-03-12T11:24:14.505Z,16156.00
2019-03-12T11:25:26.653Z,15244.00
2019-03-12T11:26:15.518Z,14512.00
2019-03-12T11:27:15.277Z,14140.00
2019-03-12T11:28:14.449Z,13976.00
2019-03-12T11:29:14.435Z,13428.00
2019-03-12T11:30:14.426Z,13044.00
2019-03-12T11:31:14.424Z,12700.00
2019-03-12T11:32:14.451Z,12876.00
2019-03-12T11:33:14.397Z,12760.00
2019-03-12T11:34:14.402Z,12456.00
2019-03-12T11:35:14.369Z,11892.00
2019-03-12T11:36:14.470Z,11356.00
2019-03-12T11:37:14.355Z,10732.00
2019-03-12T11:38:14.345Z,9988.00
2019-03-12T11:39:14.351Z,9652.00
2019-03-12T11:40:14.318Z,9336.00
2019-03-12T11:41:14.304Z,9236.00
2019-03-12T11:42:14.314Z,9748.00
2019-03-12T11:43:14.331Z,11344.00
2019-03-12T11:44:14.296Z,13168.00
2019-03-12T11:45:18.077Z,13440.00
2019-03-12T11:46:15.269Z,12608.00
2019-03-12T11:47:14.257Z,11484.00
2019-03-12T11:48:14.241Z,10672.00
2019-03-12T11:49:26.861Z,10688.00
2019-03-12T11:50:14.212Z,11128.00
2019-03-12T11:51:14.200Z,11448.00
2019-03-12T11:52:14.185Z,11236.00
2019-03-12T11:53:14.181Z,10912.00
2019-03-12T11:54:14.180Z,11124.00
2019-03-12T11:55:14.200Z,11608.00
2019-03-12T11:56:14.157Z,11656.00
2019-03-12T11:57:14.151Z,11096.00
2019-03-12T11:58:14.124Z,10528.00
2019-03-12T11:59:14.117Z,10860.00
2019-03-12T12:00:14.123Z,11768.00
2019-03-12T12:01:14.328Z,12836.00
2019-03-12T12:02:14.086Z,13048.00
2019-03-12T12:03:14.070Z,12224.00
2019-03-12T12:04:14.064Z,12500.00
2019-03-12T12:05:14.062Z,12684.00
2019-03-12T12:06:14.041Z,12684.00
2019-03-12T12:07:14.148Z,12532.00
2019-03-12T12:08:14.050Z,12272.00
2019-03-12T12:09:14.128Z,11884.00
2019-03-12T12:10:14.084Z,11836.00
2019-03-12T12:11:13.994Z,11528.00
2019-03-12T12:12:13.977Z,11212.00
2019-03-12T12:13:14.000Z,10928.00
2019-03-12T12:14:13.954Z,10832.00